createdAt,value
2023-03-04T00:00:33.920Z,98355.91
2023-03-04T00:03:01.252Z,98349.28
2023-03-04T00:05:28.644Z,98363.78
2023-03-04T00:07:55.537Z,98357.00
2023-03-04T00:10:22.828Z,98361.84
2023-03-04T00:12:49.693Z,98359.22
2023-03-04T00:15:17.034Z,98360.31
2023-03-04T00:17:46.161Z,98359.06
2023-03-04T00:20:13.913Z,98352.59
2023-03-04T00:22:41.181Z,98355.63
2023-03-04T00:25:08.636Z,98354.66
2023-03-04T00:27:35.882Z,98355.59
2023-03-04T00:30:03.934Z,98356.84
2023-03-04T00:32:30.831Z,98357.66
2023-03-04T00:34:58.144Z,98356.00
2023-03-04T00:37:25.069Z,98363.78
2023-03-04T00:39:51.971Z,98355.59
2023-03-04T00:42:19.316Z,98351.72
2023-03-04T00:44:46.267Z,98356.13
2023-03-04T00:47:13.597Z,98355.31
2023-03-04T00:49:41.170Z,98361.66
2023-03-04T00:52:08.639Z,98354.22
2023-03-04T00:54:35.534Z,98352.13
2023-03-04T00:57:02.406Z,98352.09
2023-03-04T00:59:29.319Z,98353.91
2023-03-04T01:01:56.225Z,98348.38
2023-03-04T01:04:23.142Z,98353.91
2023-03-04T01:06:50.150Z,98344.66
2023-03-04T01:09:17.650Z,98339.28
2023-03-04T01:11:44.926Z,98332.63
2023-03-04T01:14:12.226Z,98343.41
2023-03-04T01:16:39.615Z,98328.78
2023-03-04T01:19:06.525Z,98332.75
2023-03-04T01:21:33.807Z,98333.59
2023-03-04T01:24:00.671Z,98326.25
2023-03-04T01:26:27.576Z,98332.34
2023-03-04T01:28:54.482Z,98322.41
2023-03-04T01:31:21.459Z,98321.84
2023-03-04T01:33:48.324Z,98322.94
2023-03-04T01:36:15.241Z,98327.63
2023-03-04T01:38:42.278Z,98335.06
2023-03-04T01:41:09.641Z,98327.09
2023-03-04T01:43:37.504Z,98322.25
2023-03-04T01:46:05.054Z,98334.22
2023-03-04T01:48:37.064Z,98333.00
2023-03-04T01:51:15.479Z,98329.00
2023-03-04T01:53:44.204Z,98336.00
2023-03-04T01:56:29.031Z,98326.84
2023-03-04T01:59:17.450Z,98326.38
2023-03-04T02:01:48.871Z,98337.56
2023-03-04T02:04:18.616Z,98335.63
2023-03-04T02:06:47.946Z,98331.50
2023-03-04T02:09:16.584Z,98329.75
2023-03-04T02:11:44.515Z,98335.94
2023-03-04T02:14:12.916Z,98331.41
2023-03-04T02:16:40.028Z,98321.78
2023-03-04T02:19:42.857Z,98328.88
2023-03-04T02:22:09.830Z,98321.53
2023-03-04T02:24:44.085Z,98327.03
2023-03-04T02:27:12.089Z,98313.75
2023-03-04T02:29:39.444Z,98315.78
2023-03-04T02:32:06.971Z,98315.31
2023-03-04T02:34:35.809Z,98323.84
2023-03-04T02:37:04.030Z,98319.72
2023-03-04T02:39:35.201Z,98319.28
2023-03-04T02:42:03.850Z,98321.03
2023-03-04T02:44:39.360Z,98326.00
2023-03-04T02:47:10.172Z,98326.44
2023-03-04T02:49:40.125Z,98325.03
2023-03-04T02:52:18.861Z,98325.84
2023-03-04T02:54:46.391Z,98326.75
2023-03-04T02:57:14.888Z,98327.31
2023-03-04T02:59:44.743Z,98329.66
2023-03-04T03:02:16.532Z,98328.50
2023-03-04T03:04:43.479Z,98331.31
2023-03-04T03:07:13.916Z,98330.09
2023-03-04T03:09:41.952Z,98333.81
2023-03-04T03:12:09.296Z,98326.72
2023-03-04T03:14:36.693Z,98322.03
2023-03-04T03:17:05.501Z,98331.41
2023-03-04T03:19:32.396Z,98328.31
2023-03-04T03:22:01.818Z,98332.88
2023-03-04T03:24:29.306Z,98325.19
2023-03-04T03:26:56.720Z,98320.47
2023-03-04T03:29:24.654Z,98326.53
2023-03-04T03:31:52.154Z,98321.69
2023-03-04T03:34:21.613Z,98320.66
2023-03-04T03:36:49.429Z,98321.75
2023-03-04T03:39:16.606Z,98324.63
2023-03-04T03:41:43.942Z,98316.28
2023-03-04T03:44:11.407Z,98313.97
2023-03-04T03:46:38.307Z,98323.50
2023-03-04T03:49:05.581Z,98315.09
2023-03-04T03:51:33.075Z,98310.53
2023-03-04T03:53:59.938Z,98317.22
2023-03-04T03:56:27.258Z,98320.44
2023-03-04T03:58:54.519Z,98321.66
2023-03-04T04:01:21.666Z,98322.78
2023-03-04T04:03:48.980Z,98325.97
2023-03-04T04:06:15.855Z,98330.59
2023-03-04T04:08:43.159Z,98325.06
2023-03-04T04:11:11.823Z,98327.81
2023-03-04T04:13:39.449Z,98327.31
2023-03-04T04:16:07.502Z,98339.28
2023-03-04T04:18:34.879Z,98330.38
2023-03-04T04:21:02.238Z,98336.22
2023-03-04T04:23:29.203Z,98331.69
2023-03-04T04:25:57.198Z,98330.16
2023-03-04T04:28:24.708Z,98331.78
2023-03-04T04:30:52.165Z,98328.03
2023-03-04T04:33:19.495Z,98336.13
2023-03-04T04:35:46.632Z,98340.28
2023-03-04T04:38:14.121Z,98334.03
2023-03-04T04:40:42.857Z,98328.59
2023-03-04T04:43:10.196Z,98334.59
2023-03-04T04:45:37.319Z,98337.25
2023-03-04T04:48:06.948Z,98331.63
2023-03-04T04:50:33.814Z,98326.88
2023-03-04T04:53:01.369Z,98328.41
2023-03-04T04:55:28.713Z,98333.94
2023-03-04T04:57:58.622Z,98334.34
2023-03-04T05:00:26.234Z,98334.88
2023-03-04T05:02:53.348Z,98336.88
2023-03-04T05:05:20.695Z,98344.88
2023-03-04T05:07:47.681Z,98343.19
2023-03-04T05:10:14.869Z,98349.28
2023-03-04T05:12:43.800Z,98344.59
2023-03-04T05:15:11.673Z,98348.25
2023-03-04T05:17:38.681Z,98345.31
2023-03-04T05:20:07.104Z,98342.09
2023-03-04T05:22:34.152Z,98356.09
2023-03-04T05:25:01.054Z,98354.25
2023-03-04T05:27:28.514Z,98354.91
2023-03-04T05:29:59.751Z,98357.19
2023-03-04T05:32:27.426Z,98355.66
2023-03-04T05:34:54.745Z,98357.03
2023-03-04T05:37:21.673Z,98355.34
2023-03-04T05:39:49.027Z,98362.81
2023-03-04T05:42:16.295Z,98361.16
2023-03-04T05:44:43.585Z,98361.75
2023-03-04T05:47:10.467Z,98359.00
2023-03-04T05:49:37.764Z,98361.47
2023-03-04T05:52:05.066Z,98351.75
2023-03-04T05:54:31.959Z,98359.03
2023-03-04T05:56:59.393Z,98354.59
2023-03-04T05:59:26.386Z,98368.28
2023-03-04T06:01:53.708Z,98357.31
2023-03-04T06:04:20.620Z,98368.59
2023-03-04T06:06:47.892Z,98366.47
2023-03-04T06:09:15.507Z,98361.78
2023-03-04T06:11:42.595Z,98362.50
2023-03-04T06:14:09.507Z,98358.66
2023-03-04T06:16:36.860Z,98361.22
2023-03-04T06:19:04.246Z,98363.97
2023-03-04T06:21:31.593Z,98370.63
2023-03-04T06:23:58.904Z,98374.69
2023-03-04T06:26:25.943Z,98384.97
2023-03-04T06:28:56.791Z,98387.97
2023-03-04T06:31:23.853Z,98399.00
2023-03-04T06:33:50.939Z,98393.88
2023-03-04T06:36:18.232Z,98404.09
2023-03-04T06:38:45.352Z,98408.72
2023-03-04T06:41:13.089Z,98412.66
2023-03-04T06:43:40.738Z,98416.22
2023-03-04T06:46:08.726Z,98410.75
2023-03-04T06:48:36.131Z,98406.00
2023-03-04T06:51:08.816Z,98404.03
2023-03-04T06:53:36.428Z,98416.22
2023-03-04T06:56:04.136Z,98406.53
2023-03-04T06:58:31.146Z,98415.63
2023-03-04T07:00:58.553Z,98409.09
2023-03-04T07:03:25.452Z,98409.81
2023-03-04T07:05:52.354Z,98409.56
2023-03-04T07:08:21.702Z,98414.19
2023-03-04T07:10:49.590Z,98412.22
2023-03-04T07:13:16.904Z,98424.94
2023-03-04T07:15:43.928Z,98430.06
2023-03-04T07:18:11.205Z,98441.25
2023-03-04T07:20:38.269Z,98430.06
2023-03-04T07:23:05.158Z,98435.41
2023-03-04T07:25:32.173Z,98429.66
2023-03-04T07:27:59.020Z,98439.63
2023-03-04T07:30:26.309Z,98439.22
2023-03-04T07:32:53.706Z,98440.19
2023-03-04T07:35:20.648Z,98446.22
2023-03-04T07:37:47.988Z,98447.00
2023-03-04T07:40:15.275Z,98445.94
2023-03-04T07:42:42.678Z,98450.69
2023-03-04T07:45:12.394Z,98452.56
2023-03-04T07:47:41.345Z,98441.50
2023-03-04T07:50:10.096Z,98456.84
2023-03-04T07:52:46.089Z,98452.25
2023-03-04T07:55:15.692Z,98449.22
2023-03-04T07:57:46.689Z,98454.91
2023-03-04T08:00:16.525Z,98451.41
2023-03-04T08:02:43.939Z,98442.97
2023-03-04T08:05:11.306Z,98445.72
2023-03-04T08:07:38.248Z,98452.72
2023-03-04T08:10:06.199Z,98454.06
2023-03-04T08:12:33.948Z,98464.03
2023-03-04T08:15:01.283Z,98459.25
2023-03-04T08:17:29.731Z,98463.91
2023-03-04T08:19:57.438Z,98463.53
2023-03-04T08:22:24.719Z,98462.94
2023-03-04T08:24:51.610Z,98463.88
2023-03-04T08:27:18.890Z,98464.72
2023-03-04T08:29:45.788Z,98460.00
2023-03-04T08:32:13.164Z,98461.56
2023-03-04T08:34:40.743Z,98473.63
2023-03-04T08:37:07.634Z,98478.22
2023-03-04T08:39:36.108Z,98477.16
2023-03-04T08:42:03.497Z,98470.50
2023-03-04T08:44:30.412Z,98472.13
2023-03-04T08:46:57.703Z,98475.25
2023-03-04T08:49:25.022Z,98476.53
2023-03-04T08:51:52.307Z,98475.81
2023-03-04T08:54:19.595Z,98482.97
2023-03-04T08:56:47.159Z,98474.03
2023-03-04T08:59:14.068Z,98476.56
2023-03-04T09:01:41.436Z,98480.72
2023-03-04T09:04:08.828Z,98479.97
2023-03-04T09:06:36.189Z,98488.09
2023-03-04T09:09:03.944Z,98484.75
2023-03-04T09:11:31.299Z,98483.47
2023-03-04T09:13:58.475Z,98479.63
2023-03-04T09:16:25.780Z,98477.31
2023-03-04T09:18:53.098Z,98477.16
2023-03-04T09:21:20.430Z,98469.44
2023-03-04T09:23:47.330Z,98477.63
2023-03-04T09:26:22.511Z,98472.19
2023-03-04T09:28:55.331Z,98475.81
2023-03-04T09:31:22.741Z,98474.47
2023-03-04T09:33:50.343Z,98469.56
2023-03-04T09:36:17.787Z,98471.72
2023-03-04T09:38:45.317Z,98474.97
2023-03-04T09:41:21.218Z,98474.31
2023-03-04T09:43:50.240Z,98475.78
2023-03-04T09:46:38.083Z,98476.09
2023-03-04T09:49:07.345Z,98475.34
2023-03-04T09:52:30.324Z,98473.28
2023-03-04T09:55:06.796Z,98478.00
2023-03-04T09:58:11.211Z,98484.63
2023-03-04T10:01:09.330Z,98479.88
2023-03-04T10:03:48.210Z,98482.91
2023-03-04T10:06:21.879Z,98482.81
2023-03-04T10:09:05.130Z,98482.56
2023-03-04T10:11:51.424Z,98485.56
2023-03-04T10:14:24.555Z,98481.19
2023-03-04T10:17:15.591Z,98484.00
2023-03-04T10:20:03.579Z,98478.13
2023-03-04T10:22:48.282Z,98478.72
2023-03-04T10:25:28.111Z,98471.63
2023-03-04T10:28:04.674Z,98475.88
2023-03-04T10:30:38.570Z,98477.59
2023-03-04T10:33:19.246Z,98476.69
2023-03-04T10:36:00.275Z,98466.84
2023-03-04T10:38:35.171Z,98465.41
2023-03-04T10:41:12.213Z,98465.63
2023-03-04T10:43:39.594Z,98465.38
2023-03-04T10:46:07.116Z,98466.31
2023-03-04T10:48:34.209Z,98459.78
2023-03-04T10:51:30.835Z,98459.84
2023-03-04T10:54:05.499Z,98455.25
2023-03-04T10:56:36.370Z,98450.09
2023-03-04T10:59:30.131Z,98452.25
2023-03-04T11:02:00.886Z,98446.63
2023-03-04T11:04:34.661Z,98442.97
2023-03-04T11:07:02.075Z,98447.78
2023-03-04T11:09:31.494Z,98443.56
2023-03-04T11:12:06.888Z,98442.81
2023-03-04T11:14:49.113Z,98439.97
2023-03-04T11:17:28.581Z,98438.28
2023-03-04T11:20:13.080Z,98441.00
2023-03-04T11:22:40.877Z,98446.19
2023-03-04T11:25:40.369Z,98434.53
2023-03-04T11:28:21.073Z,98427.22
2023-03-04T11:30:56.723Z,98431.78
2023-03-04T11:33:47.470Z,98433.38
2023-03-04T11:36:25.478Z,98438.84
2023-03-04T11:38:53.062Z,98433.75
2023-03-04T11:41:36.753Z,98424.19
2023-03-04T11:44:06.932Z,98427.41
2023-03-04T11:46:50.765Z,98424.72
2023-03-04T11:49:42.125Z,98420.19
2023-03-04T11:52:48.230Z,98423.72
2023-03-04T11:55:39.983Z,98415.09
2023-03-04T11:58:49.933Z,98408.75
2023-03-04T12:01:53.738Z,98413.69
2023-03-04T12:04:40.824Z,98411.06
2023-03-04T12:07:21.002Z,98401.94
2023-03-04T12:10:24.175Z,98405.56
2023-03-04T12:13:28.238Z,98394.09
2023-03-04T12:16:34.329Z,98393.09
2023-03-04T12:19:57.452Z,98384.28
2023-03-04T12:22:38.361Z,98380.22
2023-03-04T12:25:34.182Z,98379.28
2023-03-04T12:28:23.750Z,98367.84
2023-03-04T12:31:04.933Z,98372.09
2023-03-04T12:33:40.944Z,98366.78
2023-03-04T12:36:19.375Z,98366.00
2023-03-04T12:39:33.902Z,98358.81
2023-03-04T12:42:25.486Z,98361.09
2023-03-04T12:45:30.423Z,98358.03
2023-03-04T12:48:23.354Z,98350.56
2023-03-04T12:51:27.797Z,98354.13
2023-03-04T12:54:15.007Z,98344.69
2023-03-04T12:57:00.232Z,98339.94
2023-03-04T12:59:36.118Z,98337.97
2023-03-04T13:02:26.476Z,98334.97
2023-03-04T13:05:23.965Z,98328.66
2023-03-04T13:08:25.693Z,98328.44
2023-03-04T13:10:53.574Z,98325.03
2023-03-04T13:13:41.896Z,98322.81
2023-03-04T13:16:11.884Z,98322.13
2023-03-04T13:18:39.506Z,98332.09
2023-03-04T13:21:28.817Z,98330.69
2023-03-04T13:23:56.701Z,98321.22
2023-03-04T13:26:30.439Z,98328.88
2023-03-04T13:29:16.736Z,98326.44
2023-03-04T13:32:11.889Z,98332.13
2023-03-04T13:34:53.952Z,98328.34
2023-03-04T13:37:41.686Z,98329.19
2023-03-04T13:40:35.137Z,98338.88
2023-03-04T13:43:25.811Z,98343.53
2023-03-04T13:45:52.817Z,98338.38
2023-03-04T13:48:36.540Z,98340.25
2023-03-04T13:51:04.000Z,98334.59
2023-03-04T13:53:44.117Z,98336.88
2023-03-04T13:56:26.996Z,98333.34
2023-03-04T13:59:08.080Z,98332.00
2023-03-04T14:01:55.641Z,98331.72
2023-03-04T14:04:35.646Z,98337.81
2023-03-04T14:07:30.595Z,98338.84
2023-03-04T14:10:29.591Z,98335.66
2023-03-04T14:12:59.133Z,98328.72
2023-03-04T14:15:30.780Z,98321.13
2023-03-04T14:18:04.057Z,98324.50
2023-03-04T14:20:34.747Z,98331.38
2023-03-04T14:23:04.825Z,98319.03
2023-03-04T14:25:36.581Z,98318.47
2023-03-04T14:28:13.579Z,98316.56
2023-03-04T14:30:55.330Z,98314.81
2023-03-04T14:33:30.594Z,98322.84
2023-03-04T14:36:03.346Z,98315.22
2023-03-04T14:38:38.476Z,98314.00
2023-03-04T14:41:36.487Z,98314.03
2023-03-04T14:44:38.510Z,98309.63
2023-03-04T14:47:35.381Z,98307.91
2023-03-04T14:50:12.637Z,98297.19
2023-03-04T14:52:51.668Z,98295.84
2023-03-04T14:55:27.321Z,98304.47
2023-03-04T14:58:06.652Z,98286.22
2023-03-04T15:00:36.653Z,98287.97
2023-03-04T15:03:21.714Z,98289.22
2023-03-04T15:05:49.824Z,98282.25
2023-03-04T15:08:28.574Z,98281.03
2023-03-04T15:11:01.972Z,98279.94
2023-03-04T15:13:49.793Z,98279.94
2023-03-04T15:16:22.915Z,98276.84
2023-03-04T15:19:20.893Z,98283.31
2023-03-04T15:21:48.175Z,98284.34
2023-03-04T15:24:15.402Z,98281.81
2023-03-04T15:26:43.785Z,98276.84
2023-03-04T15:29:19.669Z,98294.09
2023-03-04T15:31:50.567Z,98288.50
2023-03-04T15:34:20.465Z,98296.66
2023-03-04T15:36:50.895Z,98297.66
2023-03-04T15:39:19.602Z,98284.31
2023-03-04T15:41:48.211Z,98283.69
2023-03-04T15:44:15.508Z,98274.34
2023-03-04T15:46:42.821Z,98277.38
2023-03-04T15:49:10.124Z,98275.31
2023-03-04T15:51:37.153Z,98271.91
2023-03-04T15:54:04.776Z,98274.63
2023-03-04T15:56:34.058Z,98278.78
2023-03-04T15:59:03.323Z,98274.63
2023-03-04T16:01:31.392Z,98277.56
2023-03-04T16:03:58.620Z,98278.53
2023-03-04T16:06:30.282Z,98273.31
2023-03-04T16:08:58.723Z,98279.78
2023-03-04T16:11:32.756Z,98269.44
2023-03-04T16:14:00.119Z,98266.81
2023-03-04T16:16:27.389Z,98269.16
2023-03-04T16:18:54.406Z,98275.31
2023-03-04T16:21:23.301Z,98276.31
2023-03-04T16:23:52.427Z,98269.56
2023-03-04T16:26:21.708Z,98270.22
2023-03-04T16:28:49.662Z,98270.47
2023-03-04T16:31:17.222Z,98279.63
2023-03-04T16:33:45.083Z,98269.56
2023-03-04T16:36:27.118Z,98270.53
2023-03-04T16:38:56.364Z,98273.59
2023-03-04T16:41:27.856Z,98272.19
2023-03-04T16:43:55.973Z,98272.59
2023-03-04T16:46:24.346Z,98274.69
2023-03-04T16:48:51.704Z,98265.88
2023-03-04T16:51:21.852Z,98272.47
2023-03-04T16:53:56.118Z,98271.09
2023-03-04T16:56:23.745Z,98263.38
2023-03-04T16:58:51.779Z,98268.75
2023-03-04T17:01:27.911Z,98271.22
2023-03-04T17:03:55.848Z,98267.03
2023-03-04T17:06:24.047Z,98271.41
2023-03-04T17:08:51.763Z,98274.22
2023-03-04T17:11:23.892Z,98279.94
2023-03-04T17:13:51.674Z,98277.09
2023-03-04T17:16:19.101Z,98268.47
2023-03-04T17:18:46.459Z,98268.34
2023-03-04T17:21:21.303Z,98273.44
2023-03-04T17:23:48.968Z,98261.94
2023-03-04T17:26:20.704Z,98274.34
2023-03-04T17:28:49.344Z,98277.47
2023-03-04T17:31:19.124Z,98278.81
2023-03-04T17:33:47.567Z,98280.09
2023-03-04T17:36:17.236Z,98285.66
2023-03-04T17:38:44.209Z,98284.81
2023-03-04T17:41:17.265Z,98288.50
2023-03-04T17:43:49.362Z,98292.22
2023-03-04T17:46:20.182Z,98289.09
2023-03-04T17:48:47.358Z,98291.97
2023-03-04T17:51:14.649Z,98284.75
2023-03-04T17:53:42.286Z,98281.75
2023-03-04T17:56:11.173Z,98279.25
2023-03-04T17:58:39.042Z,98275.47
2023-03-04T18:01:19.216Z,98278.63
2023-03-04T18:03:46.689Z,98275.63
2023-03-04T18:06:14.640Z,98265.63
2023-03-04T18:08:41.931Z,98272.66
2023-03-04T18:11:09.547Z,98274.16
2023-03-04T18:13:41.318Z,98272.19
2023-03-04T18:16:09.126Z,98269.66
2023-03-04T18:18:36.858Z,98279.56
2023-03-04T18:21:04.969Z,98265.47
2023-03-04T18:23:32.658Z,98279.16
2023-03-04T18:25:59.928Z,98273.53
2023-03-04T18:28:27.216Z,98268.81
2023-03-04T18:30:54.756Z,98267.88
2023-03-04T18:33:22.038Z,98259.47
2023-03-04T18:35:48.981Z,98258.56
2023-03-04T18:38:16.299Z,98258.31
2023-03-04T18:40:44.608Z,98262.81
2023-03-04T18:43:11.520Z,98259.88
2023-03-04T18:45:38.784Z,98264.84
2023-03-04T18:48:06.131Z,98262.28
2023-03-04T18:50:33.550Z,98253.72
2023-03-04T18:53:00.855Z,98256.16
2023-03-04T18:55:28.333Z,98255.19
2023-03-04T18:57:57.957Z,98257.50
2023-03-04T19:00:25.270Z,98251.88
2023-03-04T19:03:04.730Z,98255.06
2023-03-04T19:05:33.296Z,98258.69
2023-03-04T19:08:00.343Z,98255.44
2023-03-04T19:10:28.844Z,98256.00
2023-03-04T19:12:57.539Z,98251.09
2023-03-04T19:15:25.603Z,98254.47
2023-03-04T19:17:52.891Z,98253.47
2023-03-04T19:20:19.884Z,98252.03
2023-03-04T19:22:47.456Z,98249.34
2023-03-04T19:25:14.993Z,98245.97
2023-03-04T19:27:41.858Z,98247.44
2023-03-04T19:30:09.660Z,98249.25
2023-03-04T19:32:37.072Z,98241.13
2023-03-04T19:35:04.551Z,98245.97
2023-03-04T19:37:31.545Z,98251.44
2023-03-04T19:39:58.499Z,98231.34
2023-03-04T19:42:25.753Z,98240.31
2023-03-04T19:44:52.700Z,98236.81
2023-03-04T19:47:19.998Z,98235.53
2023-03-04T19:49:47.375Z,98232.31
2023-03-04T19:52:14.364Z,98240.38
2023-03-04T19:57:42.312Z,98238.50
2023-03-04T20:00:11.693Z,98235.47
2023-03-04T20:02:42.831Z,98244.00
2023-03-04T20:05:10.489Z,98234.66
2023-03-04T20:07:37.999Z,98237.34
2023-03-04T20:10:06.738Z,98235.28
2023-03-04T20:12:36.329Z,98236.25
2023-03-04T20:15:07.951Z,98228.13
2023-03-04T20:17:35.698Z,98235.78
2023-03-04T20:20:10.681Z,98240.19
2023-03-04T20:22:38.404Z,98241.69
2023-03-04T20:25:06.563Z,98241.09
2023-03-04T20:27:36.803Z,98231.38
2023-03-04T20:30:05.274Z,98239.53
2023-03-04T20:32:32.875Z,98233.03
2023-03-04T20:35:01.943Z,98227.13
2023-03-04T20:37:29.897Z,98220.94
2023-03-04T20:39:58.337Z,98217.44
2023-03-04T20:42:26.266Z,98222.06
2023-03-04T20:44:54.001Z,98225.47
2023-03-04T20:47:21.687Z,98235.41
2023-03-04T20:49:54.156Z,98231.06
2023-03-04T20:52:25.893Z,98229.13
2023-03-04T20:54:53.796Z,98225.91
2023-03-04T20:57:21.512Z,98220.44
2023-03-04T20:59:49.714Z,98227.00
2023-03-04T21:02:23.537Z,98223.97
2023-03-04T21:04:51.696Z,98224.94
2023-03-04T21:07:19.914Z,98218.53
2023-03-04T21:09:48.811Z,98224.09
2023-03-04T21:12:17.032Z,98207.41
2023-03-04T21:14:45.147Z,98209.78
2023-03-04T21:17:13.046Z,98210.31
2023-03-04T21:19:43.515Z,98205.66
2023-03-04T21:22:21.817Z,98211.72
2023-03-04T21:24:49.659Z,98219.28
2023-03-04T21:27:18.106Z,98202.63
2023-03-04T21:29:46.169Z,98204.25
2023-03-04T21:32:25.927Z,98201.91
2023-03-04T21:34:55.415Z,98209.13
2023-03-04T21:37:25.147Z,98207.44
2023-03-04T21:39:53.412Z,98192.69
2023-03-04T21:42:22.406Z,98195.97
2023-03-04T21:44:51.850Z,98187.41
2023-03-04T21:47:23.119Z,98191.59
2023-03-04T21:49:51.133Z,98197.41
2023-03-04T21:52:21.422Z,98191.53
2023-03-04T21:54:49.847Z,98195.06
2023-03-04T21:57:18.573Z,98194.25
2023-03-04T21:59:46.463Z,98197.78
2023-03-04T22:02:42.487Z,98191.97
2023-03-04T22:05:10.540Z,98187.31
2023-03-04T22:07:38.464Z,98196.59
2023-03-04T22:10:06.760Z,98186.72
2023-03-04T22:12:58.017Z,98194.31
2023-03-04T22:16:11.836Z,98179.06
2023-03-04T22:18:40.857Z,98172.28
2023-03-04T22:21:12.969Z,98169.03
2023-03-04T22:23:41.133Z,98166.88
2023-03-04T22:26:14.175Z,98152.66
2023-03-04T22:28:42.251Z,98153.19
2023-03-04T22:31:31.719Z,98149.88
2023-03-04T22:34:14.861Z,98165.63
2023-03-04T22:36:47.442Z,98161.22
2023-03-04T22:39:19.372Z,98159.28
2023-03-04T22:41:47.570Z,98154.16
2023-03-04T22:44:15.066Z,98156.22
2023-03-04T22:46:43.629Z,98161.47
2023-03-04T22:49:13.534Z,98159.41
2023-03-04T22:51:44.034Z,98165.19
2023-03-04T22:54:17.374Z,98165.72
2023-03-04T22:56:45.510Z,98157.84
2023-03-04T22:59:13.573Z,98161.81
2023-03-04T23:01:41.920Z,98162.66
2023-03-04T23:04:09.458Z,98155.44
2023-03-04T23:06:37.841Z,98166.31
2023-03-04T23:09:05.990Z,98158.94
2023-03-04T23:11:35.632Z,98149.38
2023-03-04T23:14:06.571Z,98147.75
2023-03-04T23:16:37.171Z,98150.78
2023-03-04T23:19:07.027Z,98146.66
2023-03-04T23:21:35.171Z,98138.66
2023-03-04T23:24:03.633Z,98144.84
2023-03-04T23:26:35.957Z,98139.00
2023-03-04T23:29:05.055Z,98144.63
2023-03-04T23:31:34.219Z,98141.03
2023-03-04T23:34:03.255Z,98143.16
2023-03-04T23:36:36.236Z,98140.38
2023-03-04T23:39:05.992Z,98136.09
2023-03-04T23:41:34.505Z,98124.38
2023-03-04T23:44:02.320Z,98130.84
2023-03-04T23:46:29.771Z,98122.31
2023-03-04T23:48:57.498Z,98128.66
2023-03-04T23:51:28.528Z,98127.25
2023-03-04T23:53:56.446Z,98126.41
2023-03-04T23:56:29.911Z,98127.25
2023-03-04T23:58:58.197Z,98126.16
